createdAt,value
2019-04-03T00:00:39.718Z,97345.90
2019-04-03T00:05:45.074Z,97343.20
2019-04-03T00:10:50.421Z,97353.39
2019-04-03T00:15:55.947Z,97373.37
2019-04-03T00:21:01.201Z,97358.36
2019-04-03T00:26:06.614Z,97354.88
2019-04-03T00:31:12.186Z,97343.01
2019-04-03T00:36:17.467Z,97335.19
2019-04-03T00:41:24.768Z,97333.80
2019-04-03T00:46:30.045Z,97333.33
2019-04-03T00:51:35.408Z,97332.14
2019-04-03T00:56:40.790Z,97325.13
2019-04-03T01:01:46.392Z,97310.45
2019-04-03T01:06:51.632Z,97297.58
2019-04-03T01:11:56.897Z,97291.77
2019-04-03T01:17:04.401Z,97284.91
2019-04-03T01:22:09.394Z,97279.09
2019-04-03T01:27:14.699Z,97286.23
2019-04-03T01:32:19.477Z,97286.48
2019-04-03T01:37:24.905Z,97286.48
2019-04-03T01:42:30.261Z,97289.14
2019-04-03T01:47:35.572Z,97279.33
2019-04-03T01:52:40.878Z,97287.75
2019-04-03T01:57:46.203Z,97285.25
2019-04-03T02:02:51.659Z,97278.35
2019-04-03T02:07:56.961Z,97270.50
2019-04-03T02:13:02.232Z,97271.08
2019-04-03T02:18:07.596Z,97272.30
2019-04-03T02:23:13.970Z,97266.00
2019-04-03T02:28:19.369Z,97255.88
2019-04-03T02:33:28.354Z,97261.00
2019-04-03T02:38:32.115Z,97256.86
2019-04-03T02:43:37.845Z,97249.48
2019-04-03T02:48:43.444Z,97247.97
2019-04-03T02:53:48.662Z,97233.12
2019-04-03T02:58:55.022Z,97240.67
2019-04-03T03:04:01.135Z,97238.31
2019-04-03T03:09:07.057Z,97232.81
2019-04-03T03:14:13.182Z,97227.34
2019-04-03T03:19:19.135Z,97232.13
2019-04-03T03:24:28.501Z,97228.96
2019-04-03T03:29:32.394Z,97238.91
2019-04-03T03:34:54.943Z,97227.78
2019-04-03T03:39:45.255Z,97227.47
2019-04-03T03:44:50.958Z,97225.78
2019-04-03T03:49:56.234Z,97222.49
2019-04-03T03:55:01.979Z,97212.19
2019-04-03T04:00:08.254Z,97214.00
2019-04-03T04:05:13.725Z,97211.48
2019-04-03T04:10:18.940Z,97201.17
2019-04-03T04:15:28.825Z,97190.37
2019-04-03T04:20:32.327Z,97191.82
2019-04-03T04:25:38.431Z,97191.48
2019-04-03T04:30:46.685Z,97193.23
2019-04-03T04:35:52.967Z,97198.06
2019-04-03T04:41:01.356Z,97188.91
2019-04-03T04:46:05.418Z,97189.59
2019-04-03T04:51:11.067Z,97185.75
2019-04-03T04:56:16.460Z,97184.16
2019-04-03T05:01:21.694Z,97197.92
2019-04-03T05:06:28.582Z,97188.08
2019-04-03T05:11:34.014Z,97184.88
2019-04-03T05:16:39.221Z,97190.35
2019-04-03T05:21:44.555Z,97186.36
2019-04-03T05:26:49.802Z,97185.36
2019-04-03T05:31:55.698Z,97187.51
2019-04-03T05:37:02.072Z,97181.52
2019-04-03T05:42:07.306Z,97181.56
2019-04-03T05:47:12.707Z,97181.87
2019-04-03T05:52:17.891Z,97182.55
2019-04-03T05:57:23.916Z,97185.41
2019-04-03T06:02:29.546Z,97185.77
2019-04-03T06:07:35.704Z,97187.41
2019-04-03T06:12:44.620Z,97184.16
2019-04-03T06:17:50.244Z,97178.60
2019-04-03T06:22:55.489Z,97183.36
2019-04-03T06:28:00.736Z,97178.94
2019-04-03T06:33:06.124Z,97177.98
2019-04-03T06:38:11.767Z,97179.10
2019-04-03T06:43:17.906Z,97178.12
2019-04-03T06:48:23.236Z,97178.70
2019-04-03T06:53:29.107Z,97182.98
2019-04-03T06:58:38.941Z,97180.92
2019-04-03T07:03:41.696Z,97177.38
2019-04-03T07:08:47.148Z,97179.42
2019-04-03T07:13:53.957Z,97177.88
2019-04-03T07:18:59.758Z,97175.35
2019-04-03T07:24:05.108Z,97182.23
2019-04-03T07:29:12.163Z,97178.84
2019-04-03T07:34:17.889Z,97174.20
2019-04-03T07:39:23.242Z,97178.52
2019-04-03T07:44:29.907Z,97188.25
2019-04-03T07:49:35.768Z,97175.75
2019-04-03T07:54:41.488Z,97213.83
2019-04-03T07:59:47.278Z,97225.14
2019-04-03T08:04:54.171Z,97232.98
2019-04-03T08:09:59.717Z,97240.25
2019-04-03T08:15:06.103Z,97239.73
2019-04-03T08:20:11.500Z,97245.64
2019-04-03T08:25:16.990Z,97250.50
2019-04-03T08:30:22.335Z,97251.05
2019-04-03T08:35:27.732Z,97262.39
2019-04-03T08:40:33.429Z,97250.31
2019-04-03T08:45:39.251Z,97249.67
2019-04-03T08:50:44.896Z,97265.00
2019-04-03T08:55:50.145Z,97260.39
2019-04-03T09:00:56.130Z,97268.17
2019-04-03T09:06:02.139Z,97274.82
2019-04-03T09:11:08.781Z,97269.55
2019-04-03T09:16:14.247Z,97270.03
2019-04-03T09:21:19.463Z,97266.12
2019-04-03T09:26:24.748Z,97263.50
2019-04-03T09:31:30.080Z,97268.38
2019-04-03T09:36:35.578Z,97275.84
2019-04-03T09:41:40.989Z,97269.25
2019-04-03T09:46:46.280Z,97273.67
2019-04-03T09:51:53.020Z,97279.02
2019-04-03T09:57:04.441Z,97283.82
2019-04-03T10:02:05.586Z,97285.05
2019-04-03T10:07:10.802Z,97286.38
2019-04-03T10:12:17.039Z,97285.79
2019-04-03T10:17:22.427Z,97276.10
2019-04-03T10:22:28.311Z,97268.56
2019-04-03T10:27:33.630Z,97268.95
2019-04-03T10:32:39.143Z,97261.97
2019-04-03T10:37:46.375Z,97256.53
2019-04-03T10:42:51.869Z,97247.32
2019-04-03T10:51:03.951Z,97242.56
2019-04-03T10:56:10.033Z,97239.60
2019-04-03T11:01:15.659Z,97202.59
2019-04-03T11:06:21.380Z,97189.39
2019-04-03T11:11:29.119Z,97176.05
2019-04-03T11:16:34.353Z,97160.43
2019-04-03T11:21:39.863Z,97172.30
2019-04-03T11:26:45.662Z,97155.36
2019-04-03T11:31:52.256Z,97185.84
2019-04-03T11:36:59.686Z,97173.87
2019-04-03T11:42:04.546Z,97173.72
2019-04-03T11:47:10.886Z,97158.27
2019-04-03T11:52:17.732Z,97154.23
2019-04-03T11:57:44.111Z,97154.61
2019-04-03T12:02:50.076Z,97132.37
2019-04-03T12:07:56.648Z,97156.64
2019-04-03T12:13:04.306Z,97161.77
2019-04-03T12:18:10.085Z,97158.48
2019-04-03T12:23:15.399Z,97156.20
2019-04-03T12:28:20.892Z,97156.97
2019-04-03T12:33:26.566Z,97148.98
2019-04-03T12:38:31.876Z,97165.44
2019-04-03T12:43:37.476Z,97165.61
2019-04-03T12:48:43.327Z,97151.91
2019-04-03T12:53:49.175Z,97164.53
2019-04-03T12:58:54.645Z,97151.03
2019-04-03T13:04:01.496Z,97150.87
2019-04-03T13:09:10.989Z,97143.37
2019-04-03T13:14:23.836Z,97129.70
2019-04-03T13:19:24.464Z,97111.86
2019-04-03T13:24:33.564Z,97105.01
2019-04-03T13:29:40.844Z,97081.82
2019-04-03T13:34:47.597Z,97075.98
2019-04-03T13:39:52.946Z,97047.79
2019-04-03T13:45:00.059Z,97042.99
2019-04-03T13:50:07.389Z,97032.62
2019-04-03T13:55:13.251Z,97050.00
2019-04-03T14:00:22.717Z,97044.70
2019-04-03T14:05:27.822Z,97039.23
2019-04-03T14:10:33.176Z,97022.38
2019-04-03T14:15:41.012Z,97009.08
2019-04-03T14:20:45.803Z,96992.94
2019-04-03T14:26:03.032Z,97011.42
2019-04-03T14:30:58.564Z,97016.08
2019-04-03T14:36:04.198Z,97022.56
2019-04-03T14:41:09.619Z,97027.89
2019-04-03T14:46:17.309Z,97037.55
2019-04-03T14:51:21.870Z,97045.35
2019-04-03T14:56:27.200Z,97048.01
2019-04-03T15:01:32.526Z,97027.37
2019-04-03T15:06:37.982Z,97026.81
2019-04-03T15:11:43.640Z,97027.98
2019-04-03T15:16:50.755Z,97033.12
2019-04-03T15:21:59.211Z,97030.14
2019-04-03T15:27:03.195Z,97036.94
2019-04-03T15:32:08.616Z,97027.32
2019-04-03T15:37:14.836Z,97031.79
2019-04-03T15:42:20.995Z,97036.93
2019-04-03T15:47:36.102Z,97044.54
2019-04-03T15:52:33.915Z,97040.23
2019-04-03T15:57:40.698Z,97025.71
2019-04-03T16:02:47.205Z,97023.15
2019-04-03T16:07:53.722Z,97015.58
2019-04-03T16:12:59.853Z,97012.75
2019-04-03T16:18:07.722Z,96994.12
2019-04-03T16:23:12.979Z,97012.22
2019-04-03T16:28:18.378Z,97002.70
2019-04-03T16:33:24.875Z,97016.33
2019-04-03T16:38:31.351Z,97009.08
2019-04-03T16:43:36.640Z,96996.92
2019-04-03T16:48:43.310Z,96991.61
2019-04-03T16:53:49.450Z,97011.00
2019-04-03T16:58:55.003Z,96990.47
2019-04-03T17:04:03.230Z,96978.67
2019-04-03T17:09:08.779Z,96996.88
2019-04-03T17:14:14.278Z,97009.61
2019-04-03T17:19:20.013Z,97013.58
2019-04-03T17:24:25.890Z,97035.09
2019-04-03T17:29:31.151Z,97026.84
2019-04-03T17:34:37.814Z,97021.13
2019-04-03T17:39:45.763Z,96996.63
2019-04-03T17:44:51.074Z,97015.17
2019-04-03T17:50:01.914Z,97026.35
2019-04-03T17:55:10.005Z,97026.35
2019-04-03T18:00:20.875Z,97031.16
2019-04-03T18:05:26.317Z,97055.83
2019-04-03T18:10:31.553Z,97072.92
2019-04-03T18:15:37.185Z,97077.81
2019-04-03T18:20:44.459Z,97092.01
2019-04-03T18:25:49.571Z,97089.01
2019-04-03T18:30:56.192Z,97082.51
2019-04-03T18:36:01.816Z,97078.83
2019-04-03T18:41:07.213Z,97090.02
2019-04-03T18:46:12.768Z,97094.30
2019-04-03T18:51:20.286Z,97090.50
2019-04-03T18:56:24.920Z,97129.61
2019-04-03T19:01:32.261Z,97121.25
2019-04-03T19:06:38.148Z,97099.70
2019-04-03T19:11:43.454Z,97098.67
2019-04-03T19:16:52.708Z,97111.73
2019-04-03T19:21:55.732Z,97111.97
2019-04-03T19:27:02.408Z,97098.72
2019-04-03T19:32:11.771Z,97098.43
2019-04-03T19:37:16.852Z,97099.48
2019-04-03T19:42:22.124Z,97103.59
2019-04-03T19:47:27.457Z,97112.06
2019-04-03T19:52:32.791Z,97117.92
2019-04-03T19:57:38.327Z,97117.92
2019-04-03T20:02:43.965Z,97092.59
2019-04-03T20:07:49.757Z,97094.75
2019-04-03T20:12:56.046Z,97093.16
2019-04-03T20:18:01.518Z,97111.70
2019-04-03T20:23:06.933Z,97113.83
2019-04-03T20:28:12.784Z,97076.48
2019-04-03T20:33:18.199Z,97047.45
2019-04-03T20:38:23.464Z,97040.66
2019-04-03T20:43:28.741Z,97079.80
2019-04-03T20:48:34.012Z,97069.86
2019-04-03T20:53:39.564Z,97070.47
2019-04-03T20:58:55.208Z,97066.02
2019-04-03T21:03:53.658Z,97047.66
2019-04-03T21:08:59.590Z,97041.51
2019-04-03T21:14:05.830Z,97053.22
2019-04-03T21:19:11.404Z,97066.97
2019-04-03T21:24:16.994Z,97076.66
2019-04-03T21:29:22.582Z,97059.58
2019-04-03T21:34:27.878Z,97048.71
2019-04-03T21:39:33.948Z,97052.98
2019-04-03T21:44:39.959Z,97052.07
2019-04-03T21:49:47.428Z,97066.80
2019-04-03T21:54:52.451Z,97075.44
2019-04-03T21:59:57.696Z,97076.06
2019-04-03T22:05:03.625Z,97068.88
2019-04-03T22:10:09.762Z,97066.64
2019-04-03T22:15:14.988Z,97078.84
2019-04-03T22:20:20.404Z,97079.95
2019-04-03T22:25:25.991Z,97076.83
2019-04-03T22:30:31.568Z,97074.65
2019-04-03T22:35:36.823Z,97060.72
2019-04-03T22:40:42.456Z,97063.24
2019-04-03T22:45:50.443Z,97062.39
2019-04-03T22:50:54.870Z,97054.84
2019-04-03T22:56:00.666Z,97045.52
2019-04-03T23:01:06.096Z,97055.42
2019-04-03T23:06:11.585Z,97044.01
2019-04-03T23:11:17.024Z,97044.81
2019-04-03T23:16:22.636Z,97029.05
2019-04-03T23:21:27.979Z,97042.52
2019-04-03T23:26:33.611Z,97036.93
2019-04-03T23:31:39.205Z,97041.72
2019-04-03T23:36:44.932Z,97022.44
2019-04-03T23:41:50.624Z,97004.13
2019-04-03T23:46:56.094Z,96985.98
2019-04-03T23:52:01.422Z,96984.84
2019-04-03T23:57:09.550Z,96967.05
